Sunday, February 07, 2016
15:12 UTC
  |  Log In   |  Register Free
Airport Search:

Vidalia Regional Airport
(KVDI)

Vidalia Regional Airport Diagram
No Airport Diagram Available

FAA data valid effective Dec 10 2015 - Feb 4 2016 (unless otherwise noted).

 
 
 
 
 
 
 
 
 
 
 
 
 
 
Current Aviation Weather for KVDI

Weather Summary


The most recent METAR observation for VDI was updated at: 12:55 UTC
METAR for KVDI is not available. Closest METAR is for KAZE
KVDI  (most recent observation was updatred at 71:45 UTC)
071455Z AUTO 34012KT 10SM BKN047 07/M02 A3009 RMK AO2

KAZE  (23.2 nm NE)   (most recent observation was updated at 71:45 UTC)
071455Z AUTO 34010G15KT 10SM CLR 08/M02 A3009 RMK AO2 T00821023

KSBO  (25.0 nm SW)   (most recent observation was updated at 71:45 UTC)
071455Z AUTO 33006KT 10SM SCT075 06/M02 A3011 RMK AO2

TAF for KVDI is not available.
GlobalAir.com is loading additional information.
 Current Weather at VDI
41.0 F° (5.0 C°)

Northwest winds at 8.1 mph
Pressure:
30.08 in
Humidity:
66%
Wind:
Northwest at 8.1 mph
Dew Point:
30.2 F° (-1.0 C°)
Visibility:
10.00 mi
VDI NOAA Radar




Find All Airport Services Find A Hotel Find A Rental Car Find A Golf Course Find A Restaurant $100 Hamburger



Airport Weather Forecast for KVDI

Translated METAR for KVDI (1455 UTC)
METAR:
KVDI 071455Z AUTO 34012KT 10SM BKN047 07/M02 A3009 RMK AO2
Conditions at:
KVDI (Vidalia Rgnl, GA) observed 1455 UTC 07 February 2016
Temperature:
7°C (44.6°F)
Dewpoint:
-2°C (28.4°F) [RH = 52.7]
Pressure:
30.09 inches Hg (1019 mb)
Winds:
from the NNW (340 degrees) at 13.8 mph (12 knots: 6.2 m/s)
Visibility:
10 mile(s)
Ceiling:
4,700 feet AGL
Clouds:
Broken Cloud Cover at 4,700 feet AGL
Remarks:
site is un-manned
site is automated and HAS a precipitation sensor

Translated TAF for TAF for VDI is not available. Refer to local area forecast.
FBO's on the Field
FBO Company Facility Photos Services Transportation Aviation Fuel Prices: Prices include tax
Catering Weather Repair Courtesy Rental Type 100LL JetA JetA+ MOGAS 8087
 
Vidalia Regional Airport

This FBO has not yet been rated
FS:Phillips 66
Last Updated: Feb-01
Login to update fuel prices
SS:
Contact Vidalia Regional AirportMore FBO Information
 
Add another FBO Facility Photos Catering Weather Repair Courtesy Rental Type 100LL JetA JetA+ MOGAS 8087
Services Transportation Aviation Fuel Prices: Prices include tax


model-print
model-print
model-print
model-print